MROC/SJO METAR and TAF weather

Enter ICAO airport designator
Station Type Date Time Source
MROC METAR 2019/04/25 10:00 UTC NOAA

MROC 251000Z 07007KT CAVOK 18/13 A2998 NOSIG


Station Type Date Time Source
MROC Decoded METAR 2019/04/25 10:00 UTC NOAA

Juan Santamaria, Costa Rica (MROC) 10-00N 084-13W 939M
Apr 25, 2019 - 06:00 AM EDT / 2019.04.25 1000 UTC
Wind: from the ENE (070 degrees) at 8 MPH (7 KT):0
Visibility: greater than 7 mile(s):0
Temperature: 64 F (18 C)
Dew Point: 55 F (13 C)
Relative Humidity: 72%
Pressure (altimeter): 29.98 in. Hg (1015 hPa)
ob: MROC 251000Z 07007KT CAVOK 18/13 A2998 NOSIG
cycle: 10

Station Type Date Time Source
MROC TAF 2019/04/25 12:15 UTC NOAA

TAF MROC 2512/2612 09008KT 9999 FEW035 TX31/2518Z TN19/2510Z
BECMG 2516/2518 25009KT
TEMPO 2520/2523 RA SCT030 BKN050
TEMPO 2603/2606 VRB02KT
BECMG 2607/2609 09007KT

Example: see airport list